Time,TemperatureF,DewpointF,PressureIn,WindDirection,WindDirectionDegrees,WindSpeedMPH,WindSpeedGustMPH,Humidity,HourlyPrecipIn,Conditions,Clouds,dailyrainin,SoftwareType,DateUTC
2013-01-18 00:00:00,31.6,31.0,30.32,East,96,0.0,2.0,99,0.00,,,0.00,weatherlink.com 1.10,2013-01-18 08:00:00,
2013-01-18 00:15:00,31.6,31.0,30.32,ESE,121,0.0,2.0,99,0.00,,,0.00,weatherlink.com 1.10,2013-01-18 08:15:00,
2013-01-18 00:30:00,31.4,31.0,30.32,ESE,121,0.0,1.0,99,0.00,,,0.00,weatherlink.com 1.10,2013-01-18 08:30:00,
2013-01-18 00:45:00,31.3,31.0,30.32,East,80,1.0,1.0,99,0.00,,,0.00,weatherlink.com 1.10,2013-01-18 08:45:00,
2013-01-18 01:00:00,31.2,31.0,30.32,ESE,115,0.0,1.0,99,0.00,,,0.00,weatherlink.com 1.10,2013-01-18 09:00:00,
2013-01-18 01:15:00,31.1,31.0,30.32,ESE,122,1.0,3.0,99,0.00,,,0.00,weatherlink.com 1.10,2013-01-18 09:15:00,
2013-01-18 01:30:00,30.9,31.0,30.32,SW,236,0.0,2.0,99,0.00,,,0.00,weatherlink.com 1.10,2013-01-18 09:30:00,
2013-01-18 01:45:00,30.6,30.0,30.32,NNE,27,0.0,1.0,99,0.00,,,0.00,weatherlink.com 1.10,2013-01-18 09:45:00,
2013-01-18 02:00:00,30.7,31.0,30.32,ESE,120,0.0,1.0,99,0.00,,,0.00,weatherlink.com 1.10,2013-01-18 10:00:00,
2013-01-18 02:15:00,30.6,30.0,30.32,East,94,1.0,2.0,99,0.00,,,0.00,weatherlink.com 1.10,2013-01-18 10:15:00,
2013-01-18 02:30:00,30.7,31.0,30.32,East,85,1.0,2.0,99,0.00,,,0.00,weatherlink.com 1.10,2013-01-18 10:30:00,
2013-01-18 02:45:00,30.6,30.0,30.32,East,79,0.0,1.0,99,0.00,,,0.00,weatherlink.com 1.10,2013-01-18 10:45:00,
2013-01-18 03:00:00,30.6,30.0,30.31,ESE,117,0.0,2.0,98,0.00,,,0.00,weatherlink.com 1.10,2013-01-18 11:00:00,
2013-01-18 03:15:00,30.4,30.0,30.31,East,79,0.0,2.0,98,0.00,,,0.00,weatherlink.com 1.10,2013-01-18 11:15:00,
2013-01-18 03:30:00,30.2,30.0,30.31,SSE,162,3.0,3.0,97,0.00,,,0.00,weatherlink.com 1.10,2013-01-18 11:30:00,
2013-01-18 03:45:00,30.2,30.0,30.31,ESE,102,0.0,1.0,97,0.00,,,0.00,weatherlink.com 1.10,2013-01-18 11:45:00,
2013-01-18 04:00:00,30.0,29.0,30.30,ESE,115,0.0,2.0,97,0.00,,,0.00,weatherlink.com 1.10,2013-01-18 12:00:00,
2013-01-18 04:15:00,30.0,29.0,30.30,ESE,105,0.0,1.0,97,0.00,,,0.00,weatherlink.com 1.10,2013-01-18 12:15:00,
2013-01-18 04:31:00,29.7,29.0,30.30,ESE,104,0.0,3.0,96,0.00,,,0.00,weatherlink.com 1.10,2013-01-18 12:31:00,
2013-01-18 04:46:00,29.6,29.0,30.30,ENE,75,0.0,1.0,96,0.00,,,0.00,weatherlink.com 1.10,2013-01-18 12:46:00,
2013-01-18 05:01:00,29.4,29.0,30.30,East,86,0.0,1.0,97,0.00,,,0.00,weatherlink.com 1.10,2013-01-18 13:01:00,
2013-01-18 05:16:00,29.2,29.0,30.29,SSE,156,0.0,1.0,97,0.00,,,0.00,weatherlink.com 1.10,2013-01-18 13:16:00,
2013-01-18 05:31:00,28.9,28.0,30.29,ENE,78,0.0,1.0,96,0.00,,,0.00,weatherlink.com 1.10,2013-01-18 13:31:00,
2013-01-18 05:46:00,28.6,28.0,30.29,NE,54,0.0,1.0,97,0.00,,,0.00,weatherlink.com 1.10,2013-01-18 13:46:00,
2013-01-18 06:01:00,28.6,28.0,30.29,NE,53,0.0,1.0,97,0.00,,,0.00,weatherlink.com 1.10,2013-01-18 14:01:00,
2013-01-18 06:16:00,28.4,28.0,30.29,NE,54,0.0,1.0,97,0.00,,,0.00,weatherlink.com 1.10,2013-01-18 14:16:00,
2013-01-18 06:31:00,29.1,28.0,30.29,ENE,75,1.0,2.0,97,0.00,,,0.00,weatherlink.com 1.10,2013-01-18 14:31:00,
2013-01-18 06:46:00,29.4,28.0,30.29,ESE,105,0.0,1.0,96,0.00,,,0.00,weatherlink.com 1.10,2013-01-18 14:46:00,
2013-01-18 07:01:00,29.3,28.0,30.29,East,96,0.0,1.0,96,0.00,,,0.00,weatherlink.com 1.10,2013-01-18 15:01:00,
2013-01-18 07:16:00,29.4,28.0,30.30,ESE,102,0.0,1.0,95,0.00,,,0.00,weatherlink.com 1.10,2013-01-18 15:16:00,
2013-01-18 07:31:00,29.3,28.0,30.30,East,98,0.0,1.0,95,0.00,,,0.00,weatherlink.com 1.10,2013-01-18 15:31:00,
2013-01-18 07:46:00,29.4,28.0,30.30,ESE,109,1.0,2.0,95,0.00,,,0.00,weatherlink.com 1.10,2013-01-18 15:46:00,
2013-01-18 08:01:00,29.4,28.0,30.31,East,98,0.0,1.0,95,0.00,,,0.00,weatherlink.com 1.10,2013-01-18 16:01:00,
2013-01-18 08:16:00,29.3,28.0,30.31,SE,125,0.0,1.0,95,0.00,,,0.00,weatherlink.com 1.10,2013-01-18 16:16:00,
2013-01-18 08:31:00,29.2,28.0,30.31,ESE,110,0.0,1.0,95,0.00,,,0.00,weatherlink.com 1.10,2013-01-18 16:31:00,
2013-01-18 08:46:00,29.2,28.0,30.31,ESE,122,0.0,1.0,96,0.00,,,0.00,weatherlink.com 1.10,2013-01-18 16:46:00,
2013-01-18 09:01:00,29.6,29.0,30.32,ESE,115,0.0,1.0,96,0.00,,,0.00,weatherlink.com 1.10,2013-01-18 17:01:00,
2013-01-18 09:16:00,29.7,29.0,30.32,SE,131,0.0,1.0,96,0.00,,,0.00,weatherlink.com 1.10,2013-01-18 17:16:00,
2013-01-18 09:31:00,30.7,30.0,30.32,SSE,158,0.0,1.0,95,0.00,,,0.00,weatherlink.com 1.10,2013-01-18 17:31:00,
2013-01-18 09:46:00,31.8,30.0,30.32,SSE,156,0.0,2.0,94,0.00,,,0.00,weatherlink.com 1.10,2013-01-18 17:46:00,
2013-01-18 10:01:00,32.1,30.0,30.32,SSE,158,0.0,3.0,93,0.00,,,0.00,weatherlink.com 1.10,2013-01-18 18:01:00,
2013-01-18 10:16:00,32.7,31.0,30.33,South,190,2.0,4.0,93,0.00,,,0.00,weatherlink.com 1.10,2013-01-18 18:16:00,
2013-01-18 10:31:00,32.5,31.0,30.33,ESE,108,3.0,6.0,92,0.00,,,0.00,weatherlink.com 1.10,2013-01-18 18:31:00,
2013-01-18 10:46:00,32.7,30.0,30.33,SE,146,2.0,5.0,91,0.00,,,0.00,weatherlink.com 1.10,2013-01-18 18:46:00,
2013-01-18 11:01:00,32.7,31.0,30.33,SE,141,3.0,5.0,92,0.00,,,0.00,weatherlink.com 1.10,2013-01-18 19:01:00,
2013-01-18 11:16:00,33.0,31.0,30.32,SE,142,1.0,4.0,93,0.00,,,0.00,weatherlink.com 1.10,2013-01-18 19:16:00,
2013-01-18 11:31:00,34.8,33.0,30.32,WSW,242,2.0,3.0,93,0.00,,,0.00,weatherlink.com 1.10,2013-01-18 19:31:00,
2013-01-18 11:46:00,35.1,33.0,30.31,SSE,160,0.0,4.0,92,0.00,,,0.00,weatherlink.com 1.10,2013-01-18 19:46:00,
2013-01-18 12:01:00,35.9,34.0,30.31,SW,222,1.0,3.0,91,0.00,,,0.00,weatherlink.com 1.10,2013-01-18 20:01:00,
2013-01-18 12:16:00,36.0,34.0,30.30,SE,131,4.0,4.0,91,0.01,,,0.01,weatherlink.com 1.10,2013-01-18 20:16:00,
2013-01-18 12:31:00,36.5,34.0,30.30,SE,145,4.0,5.0,91,0.01,,,0.01,weatherlink.com 1.10,2013-01-18 20:31:00,
2013-01-18 12:46:00,37.0,34.0,30.30,South,172,0.0,3.0,89,0.01,,,0.01,weatherlink.com 1.10,2013-01-18 20:46:00,
2013-01-18 13:01:00,37.6,35.0,30.29,SE,131,2.0,3.0,90,0.01,,,0.01,weatherlink.com 1.10,2013-01-18 21:01:00,
2013-01-18 13:16:00,38.8,36.0,30.29,SSE,162,1.0,4.0,89,0.00,,,0.01,weatherlink.com 1.10,2013-01-18 21:16:00,
2013-01-18 13:31:00,39.0,36.0,30.29,SW,233,0.0,3.0,87,0.00,,,0.01,weatherlink.com 1.10,2013-01-18 21:31:00,
2013-01-18 13:46:00,39.5,36.0,30.28,ESE,121,0.0,4.0,87,0.00,,,0.01,weatherlink.com 1.10,2013-01-18 21:46:00,
2013-01-18 14:01:00,39.3,36.0,30.28,SSW,197,3.0,3.0,87,0.00,,,0.01,weatherlink.com 1.10,2013-01-18 22:01:00,
2013-01-18 14:16:00,39.7,36.0,30.28,WSW,249,2.0,4.0,87,0.00,,,0.01,weatherlink.com 1.10,2013-01-18 22:16:00,
2013-01-18 14:32:00,40.6,37.0,30.27,SSW,210,1.0,3.0,85,0.00,,,0.01,weatherlink.com 1.10,2013-01-18 22:32:00,
2013-01-18 14:47:00,41.5,38.0,30.27,SE,140,0.0,3.0,86,0.00,,,0.01,weatherlink.com 1.10,2013-01-18 22:47:00,
2013-01-18 15:02:00,42.9,38.0,30.27,South,191,0.0,3.0,83,0.00,,,0.01,weatherlink.com 1.10,2013-01-18 23:02:00,
2013-01-18 15:17:00,43.3,39.0,30.27,South,172,1.0,4.0,83,0.00,,,0.01,weatherlink.com 1.10,2013-01-18 23:17:00,
2013-01-18 15:32:00,43.8,38.0,30.27,SSW,211,2.0,3.0,80,0.00,,,0.01,weatherlink.com 1.10,2013-01-18 23:32:00,
2013-01-18 15:47:00,43.6,38.0,30.27,West,260,0.0,3.0,82,0.00,,,0.01,weatherlink.com 1.10,2013-01-18 23:47:00,
2013-01-18 16:02:00,43.9,38.0,30.27,WSW,238,0.0,2.0,81,0.00,,,0.01,weatherlink.com 1.10,2013-01-19 00:02:00,
2013-01-18 16:17:00,43.7,38.0,30.27,SW,226,0.0,2.0,81,0.00,,,0.01,weatherlink.com 1.10,2013-01-19 00:17:00,
2013-01-18 16:32:00,43.8,38.0,30.27,SSE,149,0.0,1.0,81,0.00,,,0.01,weatherlink.com 1.10,2013-01-19 00:32:00,
2013-01-18 16:47:00,42.0,38.0,30.27,SSE,149,0.0,0.0,84,0.00,,,0.01,weatherlink.com 1.10,2013-01-19 00:47:00,
2013-01-18 17:02:00,39.2,36.0,30.27,SE,139,0.0,0.0,88,0.00,,,0.01,weatherlink.com 1.10,2013-01-19 01:02:00,
2013-01-18 17:17:00,37.8,36.0,30.27,ESE,110,0.0,1.0,92,0.00,,,0.01,weatherlink.com 1.10,2013-01-19 01:17:00,
2013-01-18 17:32:00,37.2,35.0,30.27,ESE,110,0.0,0.0,93,0.00,,,0.01,weatherlink.com 1.10,2013-01-19 01:32:00,
2013-01-18 17:47:00,36.7,35.0,30.27,ESE,110,0.0,0.0,93,0.00,,,0.01,weatherlink.com 1.10,2013-01-19 01:47:00,
2013-01-18 18:02:00,36.6,35.0,30.27,ESE,104,0.0,0.0,95,0.00,,,0.01,weatherlink.com 1.10,2013-01-19 02:02:00,
2013-01-18 18:17:00,36.9,35.0,30.28,East,80,0.0,1.0,93,0.00,,,0.01,weatherlink.com 1.10,2013-01-19 02:17:00,
2013-01-18 18:32:00,37.0,35.0,30.28,ENE,70,1.0,1.0,92,0.00,,,0.01,weatherlink.com 1.10,2013-01-19 02:32:00,
2013-01-18 18:47:00,36.8,35.0,30.28,NE,53,1.0,1.0,93,0.00,,,0.01,weatherlink.com 1.10,2013-01-19 02:47:00,
2013-01-18 19:02:00,36.3,35.0,30.28,NE,41,0.0,2.0,93,0.00,,,0.01,weatherlink.com 1.10,2013-01-19 03:02:00,
2013-01-18 19:17:00,36.0,34.0,30.28,NE,41,2.0,2.0,93,0.00,,,0.01,weatherlink.com 1.10,2013-01-19 03:17:00,
2013-01-18 19:32:00,36.1,35.0,30.28,ENE,66,0.0,2.0,95,0.00,,,0.01,weatherlink.com 1.10,2013-01-19 03:32:00,
2013-01-18 19:47:00,36.8,36.0,30.28,NE,43,1.0,1.0,95,0.00,,,0.01,weatherlink.com 1.10,2013-01-19 03:47:00,
2013-01-18 20:03:00,36.5,35.0,30.28,NE,42,1.0,1.0,95,0.00,,,0.01,weatherlink.com 1.10,2013-01-19 04:03:00,
2013-01-18 20:17:00,36.5,35.0,30.28,NE,42,0.0,1.0,95,0.00,,,0.01,weatherlink.com 1.10,2013-01-19 04:17:00,
2013-01-18 20:32:00,36.7,36.0,30.28,NE,43,0.0,1.0,96,0.00,,,0.01,weatherlink.com 1.10,2013-01-19 04:32:00,
2013-01-18 20:47:00,36.4,35.0,30.28,NE,56,1.0,1.0,95,0.00,,,0.01,weatherlink.com 1.10,2013-01-19 04:47:00,
2013-01-18 21:17:00,36.4,35.0,30.29,ENE,67,0.0,0.0,96,0.00,,,0.01,weatherlink.com 1.10,2013-01-19 05:17:00,
2013-01-18 21:32:00,36.1,35.0,30.29,ENE,66,0.0,1.0,96,0.00,,,0.01,weatherlink.com 1.10,2013-01-19 05:32:00,
2013-01-18 21:47:00,35.8,35.0,30.29,ENE,68,0.0,1.0,95,0.00,,,0.01,weatherlink.com 1.10,2013-01-19 05:47:00,
2013-01-18 22:02:00,35.5,35.0,30.29,ENE,68,0.0,0.0,96,0.00,,,0.01,weatherlink.com 1.10,2013-01-19 06:02:00,
2013-01-18 22:17:00,35.1,34.0,30.29,ENE,68,0.0,0.0,96,0.00,,,0.01,weatherlink.com 1.10,2013-01-19 06:17:00,
2013-01-18 22:32:00,34.9,34.0,30.29,ENE,68,0.0,1.0,96,0.00,,,0.01,weatherlink.com 1.10,2013-01-19 06:32:00,
2013-01-18 22:47:00,33.8,33.0,30.29,ENE,68,0.0,0.0,95,0.00,,,0.01,weatherlink.com 1.10,2013-01-19 06:47:00,
2013-01-18 23:02:00,33.6,33.0,30.29,ENE,68,0.0,0.0,97,0.00,,,0.01,weatherlink.com 1.10,2013-01-19 07:02:00,
2013-01-18 23:17:00,33.7,33.0,30.29,ENE,68,0.0,0.0,97,0.00,,,0.01,weatherlink.com 1.10,2013-01-19 07:17:00,
2013-01-18 23:32:00,33.1,32.0,30.29,ENE,68,0.0,0.0,97,0.00,,,0.01,weatherlink.com 1.10,2013-01-19 07:32:00,
2013-01-18 23:47:00,32.9,32.0,30.29,ENE,68,0.0,0.0,97,0.00,,,0.01,weatherlink.com 1.10,2013-01-19 07:47:00,